createdAt,value
2018-02-24T00:00:32.621Z,30.60
2018-02-24T00:01:06.500Z,29.80
2018-02-24T00:01:40.651Z,32.47
2018-02-24T00:02:14.516Z,33.10
2018-02-24T00:02:48.373Z,32.40
2018-02-24T00:03:22.244Z,31.25
2018-02-24T00:03:56.103Z,34.85
2018-02-24T00:04:29.964Z,32.50
2018-02-24T00:05:04.124Z,28.90
2018-02-24T00:05:38.041Z,33.50
2018-02-24T00:06:11.919Z,34.28
2018-02-24T00:06:46.180Z,33.80
2018-02-24T00:07:20.037Z,39.25
2018-02-24T00:07:53.880Z,30.75
2018-02-24T00:08:27.737Z,36.03
2018-02-24T00:09:01.596Z,34.53
2018-02-24T00:09:35.441Z,29.08
2018-02-24T00:10:09.298Z,31.35
2018-02-24T00:10:43.162Z,38.42
2018-02-24T00:11:17.048Z,30.58
2018-02-24T00:11:50.928Z,29.30
2018-02-24T00:12:24.789Z,38.55
2018-02-24T00:12:58.638Z,37.80
2018-02-24T00:13:32.492Z,31.17
2018-02-24T00:14:06.356Z,28.50
2018-02-24T00:14:40.284Z,36.42
2018-02-24T00:15:14.131Z,33.55
2018-02-24T00:15:47.985Z,31.35
2018-02-24T00:16:21.967Z,38.72
2018-02-24T00:16:55.851Z,38.47
2018-02-24T00:17:29.922Z,31.27
2018-02-24T00:18:03.867Z,36.20
2018-02-24T00:18:38.100Z,37.15
2018-02-24T00:19:12.329Z,35.20
2018-02-24T00:19:46.188Z,27.95
2018-02-24T00:20:20.065Z,34.88
2018-02-24T00:20:53.920Z,35.35
2018-02-24T00:21:27.783Z,38.08
2018-02-24T00:22:01.804Z,37.40
2018-02-24T00:22:41.542Z,39.75
2018-02-24T00:23:18.038Z,30.25
2018-02-24T00:23:55.414Z,37.47
2018-02-24T00:24:29.295Z,35.53
2018-02-24T00:25:03.563Z,36.58
2018-02-24T00:25:37.460Z,36.63
2018-02-24T00:26:11.448Z,35.15
2018-02-24T00:26:45.316Z,35.67
2018-02-24T00:27:19.364Z,34.58
2018-02-24T00:27:53.209Z,32.72
2018-02-24T00:28:27.460Z,33.50
2018-02-24T00:29:01.364Z,32.42
2018-02-24T00:29:35.415Z,32.40
2018-02-24T00:30:09.291Z,31.20
2018-02-24T00:30:43.341Z,37.88
2018-02-24T00:31:17.196Z,33.65
2018-02-24T00:31:51.048Z,31.05
2018-02-24T00:32:25.254Z,32.15
2018-02-24T00:32:59.108Z,30.37
2018-02-24T00:33:32.997Z,27.05
2018-02-24T00:34:07.264Z,35.92
2018-02-24T00:34:42.536Z,29.45
2018-02-24T00:35:16.432Z,38.00
2018-02-24T00:35:50.290Z,39.65
2018-02-24T00:36:24.348Z,34.40
2018-02-24T00:36:58.335Z,36.58
2018-02-24T00:37:32.192Z,30.75
2018-02-24T00:38:06.131Z,30.23
2018-02-24T00:38:42.972Z,30.90
2018-02-24T00:39:16.818Z,33.33
2018-02-24T00:39:50.682Z,31.30
2018-02-24T00:40:24.528Z,30.00
2018-02-24T00:40:58.410Z,46.37
2018-02-24T00:41:32.266Z,39.45
2018-02-24T00:42:06.278Z,42.00
2018-02-24T00:42:40.675Z,31.77
2018-02-24T00:43:14.768Z,51.33
2018-02-24T00:43:48.616Z,36.33
2018-02-24T00:44:22.668Z,30.12
2018-02-24T00:44:56.659Z,36.58
2018-02-24T00:45:30.689Z,47.58
2018-02-24T00:46:04.535Z,40.20
2018-02-24T00:46:38.653Z,38.20
2018-02-24T00:47:12.557Z,36.85
2018-02-24T00:47:46.432Z,37.92
2018-02-24T00:48:21.170Z,33.65
2018-02-24T00:48:55.148Z,36.63
2018-02-24T00:49:29.074Z,33.88
2018-02-24T00:50:03.285Z,31.25
2018-02-24T00:50:37.127Z,35.72
2018-02-24T00:51:10.980Z,35.15
2018-02-24T00:51:47.274Z,33.25
2018-02-24T00:52:21.293Z,32.25
2018-02-24T00:52:55.155Z,31.98
2018-02-24T00:53:29.233Z,31.70
2018-02-24T00:54:03.786Z,28.62
2018-02-24T00:54:37.749Z,37.58
2018-02-24T00:55:11.737Z,30.50
2018-02-24T00:55:45.592Z,30.67
2018-02-24T00:56:19.448Z,28.85
2018-02-24T00:56:53.294Z,33.88
2018-02-24T00:57:27.145Z,29.15
2018-02-24T00:58:01.048Z,30.40
2018-02-24T00:58:34.897Z,35.83
2018-02-24T00:59:08.752Z,35.00
2018-02-24T00:59:42.743Z,33.30
2018-02-24T01:00:16.745Z,31.70
2018-02-24T01:00:50.665Z,33.88
2018-02-24T01:01:24.550Z,35.35
2018-02-24T01:01:58.403Z,37.00
2018-02-24T01:02:32.351Z,33.10
2018-02-24T01:03:06.219Z,37.50
2018-02-24T01:03:40.066Z,36.58
2018-02-24T01:04:13.948Z,28.95
2018-02-24T01:04:47.804Z,30.15
2018-02-24T01:05:21.673Z,36.22
2018-02-24T01:05:55.533Z,31.73
2018-02-24T01:06:29.388Z,42.33
2018-02-24T01:07:03.244Z,34.85
2018-02-24T01:07:39.381Z,33.33
2018-02-24T01:08:16.810Z,30.20
2018-02-24T01:08:53.670Z,32.15
2018-02-24T01:09:30.083Z,30.23
2018-02-24T01:10:06.515Z,32.78
2018-02-24T01:10:42.876Z,32.13
2018-02-24T01:11:16.815Z,38.78
2018-02-24T01:11:53.606Z,31.67
2018-02-24T01:12:30.396Z,32.92
2018-02-24T01:13:07.478Z,43.85
2018-02-24T01:13:44.101Z,33.28
2018-02-24T01:14:20.958Z,34.22
2018-02-24T01:14:57.017Z,30.37
2018-02-24T01:15:31.111Z,30.60
2018-02-24T01:16:05.009Z,27.40
2018-02-24T01:16:38.893Z,31.40
2018-02-24T01:17:12.793Z,31.95
2018-02-24T01:17:48.341Z,31.58
2018-02-24T01:18:25.011Z,29.17
2018-02-24T01:19:02.743Z,33.03
2018-02-24T01:19:39.513Z,29.00
2018-02-24T01:20:16.052Z,30.23
2018-02-24T01:20:52.844Z,33.78
2018-02-24T01:21:26.692Z,34.58
2018-02-24T01:22:00.746Z,36.15
2018-02-24T01:22:34.615Z,30.77
2018-02-24T01:23:08.677Z,27.52
2018-02-24T01:23:42.533Z,29.73
2018-02-24T01:24:16.541Z,34.63
2018-02-24T01:24:50.404Z,40.85
2018-02-24T01:25:24.493Z,29.80
2018-02-24T01:25:58.522Z,33.97
2018-02-24T01:26:32.385Z,35.63
2018-02-24T01:27:06.250Z,31.58
2018-02-24T01:27:40.215Z,36.30
2018-02-24T01:28:14.074Z,32.53
2018-02-24T01:28:47.936Z,28.00
2018-02-24T01:29:22.120Z,29.70
2018-02-24T01:29:55.977Z,33.47
2018-02-24T01:30:29.838Z,29.98
2018-02-24T01:31:03.694Z,31.45
2018-02-24T01:31:37.686Z,27.27
2018-02-24T01:32:11.561Z,32.20
2018-02-24T01:32:45.425Z,24.85
2018-02-24T01:33:19.277Z,36.17
2018-02-24T01:33:53.134Z,36.00
2018-02-24T01:34:27.004Z,31.42
2018-02-24T01:35:01.059Z,30.27
2018-02-24T01:35:34.929Z,34.40
2018-02-24T01:36:08.828Z,33.58
2018-02-24T01:36:42.742Z,35.47
2018-02-24T01:37:16.609Z,29.85
2018-02-24T01:37:50.471Z,35.95
2018-02-24T01:38:24.372Z,27.17
2018-02-24T01:38:58.260Z,31.73
2018-02-24T01:39:32.178Z,30.60
2018-02-24T01:40:06.125Z,27.17
2018-02-24T01:40:39.987Z,27.67
2018-02-24T01:41:14.368Z,30.17
2018-02-24T01:41:50.744Z,26.62
2018-02-24T01:42:24.613Z,26.87
2018-02-24T01:42:58.484Z,29.95
2018-02-24T01:43:32.354Z,27.85
2018-02-24T01:44:06.215Z,28.98
2018-02-24T01:44:40.170Z,33.00
2018-02-24T01:45:14.026Z,32.38
2018-02-24T01:45:47.901Z,31.05
2018-02-24T01:46:21.833Z,32.40
2018-02-24T01:46:55.700Z,29.40
2018-02-24T01:47:29.585Z,34.35
2018-02-24T01:48:03.511Z,33.55
2018-02-24T01:48:37.382Z,33.67
2018-02-24T01:49:11.262Z,35.95
2018-02-24T01:49:45.137Z,35.55
2018-02-24T01:50:19.116Z,27.50
2018-02-24T01:50:52.977Z,33.25
2018-02-24T01:51:26.884Z,33.15
2018-02-24T01:52:00.741Z,29.23
2018-02-24T01:52:34.599Z,23.62
2018-02-24T01:53:08.525Z,32.33
2018-02-24T01:53:42.384Z,29.95
2018-02-24T01:54:16.241Z,31.40
2018-02-24T01:54:50.118Z,33.17
2018-02-24T01:55:23.996Z,32.72
2018-02-24T01:55:57.862Z,30.83
2018-02-24T01:56:31.717Z,35.97
2018-02-24T01:57:05.634Z,36.10
2018-02-24T01:57:39.737Z,26.80
2018-02-24T01:58:13.602Z,39.65
2018-02-24T01:58:47.464Z,29.52
2018-02-24T01:59:21.623Z,27.67
2018-02-24T01:59:55.503Z,37.75
2018-02-24T02:00:29.415Z,26.95
2018-02-24T02:01:03.283Z,34.67
2018-02-24T02:01:37.152Z,28.17
2018-02-24T02:02:11.009Z,29.40
2018-02-24T02:02:44.878Z,30.12
2018-02-24T02:03:18.742Z,30.25
2018-02-24T02:03:52.889Z,30.10
2018-02-24T02:04:26.880Z,27.92
2018-02-24T02:05:00.889Z,30.40
2018-02-24T02:05:34.882Z,30.65
2018-02-24T02:06:08.745Z,30.20
2018-02-24T02:06:42.602Z,30.58
2018-02-24T02:07:16.477Z,29.63
2018-02-24T02:07:50.353Z,30.20
2018-02-24T02:08:24.203Z,28.48
2018-02-24T02:08:58.160Z,32.45
2018-02-24T02:09:32.025Z,29.20
2018-02-24T02:10:06.054Z,30.08
2018-02-24T02:10:40.045Z,36.58
2018-02-24T02:11:13.912Z,31.58
2018-02-24T02:11:47.773Z,29.80
2018-02-24T02:12:21.634Z,32.22
2018-02-24T02:12:55.727Z,29.75
2018-02-24T02:13:29.623Z,26.73
2018-02-24T02:14:03.485Z,35.63
2018-02-24T02:14:37.343Z,33.13
2018-02-24T02:15:11.443Z,38.38
2018-02-24T02:15:45.319Z,31.52
2018-02-24T02:16:19.304Z,35.92
2018-02-24T02:16:53.161Z,30.42
2018-02-24T02:17:27.197Z,33.40
2018-02-24T02:18:01.053Z,28.05
2018-02-24T02:18:34.912Z,30.70
2018-02-24T02:19:08.773Z,34.03
2018-02-24T02:19:42.624Z,27.00
2018-02-24T02:20:16.506Z,27.40
2018-02-24T02:20:50.474Z,34.83
2018-02-24T02:21:24.362Z,27.33
2018-02-24T02:21:58.221Z,39.53
2018-02-24T02:22:32.074Z,29.98
2018-02-24T02:23:05.938Z,37.05
2018-02-24T02:23:39.797Z,28.15
2018-02-24T02:24:13.658Z,32.97
2018-02-24T02:24:47.519Z,38.20
2018-02-24T02:25:21.444Z,35.97
2018-02-24T02:25:55.321Z,27.15
2018-02-24T02:26:29.186Z,32.55
2018-02-24T02:27:03.045Z,38.92
2018-02-24T02:27:36.924Z,35.38
2018-02-24T02:28:10.809Z,30.17
2018-02-24T02:28:44.678Z,39.40
2018-02-24T02:29:18.532Z,29.58
2018-02-24T02:29:52.586Z,36.58
2018-02-24T02:30:26.586Z,36.83
2018-02-24T02:31:00.438Z,30.48
2018-02-24T02:31:34.476Z,35.00
2018-02-24T02:32:08.336Z,33.50
2018-02-24T02:32:42.281Z,34.22
2018-02-24T02:33:16.159Z,34.75
2018-02-24T02:33:50.021Z,31.52
2018-02-24T02:34:23.877Z,32.47
2018-02-24T02:34:57.735Z,30.90
2018-02-24T02:35:31.658Z,28.02
2018-02-24T02:36:05.538Z,31.45
2018-02-24T02:36:39.537Z,32.50
2018-02-24T02:37:13.540Z,31.30
2018-02-24T02:37:47.515Z,30.45
2018-02-24T02:38:21.381Z,27.65
2018-02-24T02:38:55.318Z,33.92
2018-02-24T02:39:29.314Z,32.20
2018-02-24T02:40:03.191Z,34.55
2018-02-24T02:40:37.082Z,27.17
2018-02-24T02:41:10.985Z,42.62
2018-02-24T02:41:44.850Z,30.05
2018-02-24T02:42:18.910Z,32.03
2018-02-24T02:42:52.873Z,36.08
2018-02-24T02:43:26.796Z,30.73
2018-02-24T02:44:00.626Z,31.98
2018-02-24T02:44:35.507Z,28.38
2018-02-24T02:45:11.863Z,29.02
2018-02-24T02:45:48.906Z,28.75
2018-02-24T02:46:25.254Z,26.40
2018-02-24T02:47:01.699Z,29.02
2018-02-24T02:47:37.921Z,27.58
2018-02-24T02:48:14.802Z,27.77
2018-02-24T02:48:48.949Z,27.92
2018-02-24T02:49:25.545Z,27.87
2018-02-24T02:50:01.751Z,31.80
2018-02-24T02:50:38.576Z,32.05
2018-02-24T02:51:15.396Z,27.77
2018-02-24T02:51:51.938Z,30.62
2018-02-24T02:52:28.024Z,35.17
2018-02-24T02:53:01.994Z,38.45
2018-02-24T02:53:35.860Z,25.90
2018-02-24T02:54:12.508Z,30.55
2018-02-24T02:54:51.175Z,25.58
2018-02-24T02:55:26.897Z,32.83
2018-02-24T02:56:04.126Z,29.40
2018-02-24T02:56:41.287Z,32.65
2018-02-24T02:57:18.379Z,28.33
2018-02-24T02:57:52.507Z,29.25
2018-02-24T02:58:26.387Z,31.80
2018-02-24T02:59:02.959Z,38.17
2018-02-24T02:59:39.826Z,32.20
2018-02-24T03:00:16.592Z,27.65
2018-02-24T03:00:53.476Z,32.22
2018-02-24T03:01:30.070Z,27.83
2018-02-24T03:02:07.431Z,28.50
2018-02-24T03:02:41.293Z,26.20
2018-02-24T03:03:15.170Z,29.85
2018-02-24T03:03:51.828Z,27.87
2018-02-24T03:04:28.594Z,29.42
2018-02-24T03:05:05.050Z,35.13
2018-02-24T03:05:41.229Z,33.10
2018-02-24T03:06:17.924Z,35.65
2018-02-24T03:06:54.318Z,34.17
2018-02-24T03:07:28.181Z,31.23
2018-02-24T03:08:02.053Z,30.58
2018-02-24T03:08:38.927Z,36.63
2018-02-24T03:09:15.420Z,38.28
2018-02-24T03:09:52.215Z,25.02
2018-02-24T03:10:28.571Z,29.83
2018-02-24T03:11:05.734Z,28.33
2018-02-24T03:11:42.849Z,28.17
2018-02-24T03:12:16.782Z,30.23
2018-02-24T03:12:53.492Z,32.35
2018-02-24T03:13:30.210Z,30.35
2018-02-24T03:14:07.006Z,28.40
2018-02-24T03:14:43.446Z,29.90
2018-02-24T03:15:17.287Z,27.75
2018-02-24T03:15:51.312Z,31.00
2018-02-24T03:16:25.173Z,32.25
2018-02-24T03:16:59.064Z,28.52
2018-02-24T03:17:32.946Z,32.30
2018-02-24T03:18:07.027Z,28.15
2018-02-24T03:18:40.874Z,29.95
2018-02-24T03:19:15.288Z,29.45
2018-02-24T03:19:49.212Z,38.72
2018-02-24T03:20:23.117Z,30.15
2018-02-24T03:20:56.969Z,31.30
2018-02-24T03:21:30.961Z,26.90
2018-02-24T03:22:04.879Z,30.05
2018-02-24T03:22:38.875Z,25.45
2018-02-24T03:23:12.748Z,29.35
2018-02-24T03:23:46.613Z,29.25
2018-02-24T03:24:20.757Z,31.02
2018-02-24T03:24:54.621Z,30.80
2018-02-24T03:25:28.488Z,28.12
2018-02-24T03:26:02.354Z,27.77
2018-02-24T03:26:38.510Z,25.30
2018-02-24T03:27:12.369Z,38.38
2018-02-24T03:27:46.230Z,32.08
2018-02-24T03:28:20.130Z,31.10
2018-02-24T03:28:53.988Z,33.47
2018-02-24T03:29:27.978Z,30.98
2018-02-24T03:30:01.868Z,27.65
2018-02-24T03:30:35.742Z,32.30
2018-02-24T03:31:09.666Z,27.27
2018-02-24T03:31:43.529Z,28.12
2018-02-24T03:32:17.452Z,32.17
2018-02-24T03:32:51.335Z,31.70
2018-02-24T03:33:25.204Z,28.30
2018-02-24T03:33:59.100Z,31.95
2018-02-24T03:34:32.956Z,27.10
2018-02-24T03:35:06.829Z,29.30
2018-02-24T03:35:40.691Z,27.42
2018-02-24T03:36:14.730Z,31.08
2018-02-24T03:36:48.622Z,32.78
2018-02-24T03:37:22.485Z,25.88
2018-02-24T03:37:56.448Z,32.90
2018-02-24T03:38:30.337Z,28.00
2018-02-24T03:39:04.207Z,27.13
2018-02-24T03:39:38.094Z,27.77
2018-02-24T03:40:11.966Z,33.83
2018-02-24T03:40:45.833Z,24.45
2018-02-24T03:41:19.885Z,30.90
2018-02-24T03:41:53.760Z,39.97
2018-02-24T03:42:27.634Z,27.40
2018-02-24T03:43:01.565Z,28.83
2018-02-24T03:43:35.437Z,33.47
2018-02-24T03:44:09.472Z,29.33
2018-02-24T03:44:43.325Z,27.45
2018-02-24T03:45:17.186Z,30.42
2018-02-24T03:45:51.757Z,27.20
2018-02-24T03:46:28.256Z,29.27
2018-02-24T03:47:02.108Z,29.80
2018-02-24T03:47:35.973Z,28.70
2018-02-24T03:48:09.897Z,23.15
2018-02-24T03:48:43.850Z,25.62
2018-02-24T03:49:18.114Z,29.55
2018-02-24T03:49:51.968Z,29.83
2018-02-24T03:50:25.831Z,30.70
2018-02-24T03:50:59.693Z,24.92
2018-02-24T03:51:33.693Z,28.10
2018-02-24T03:52:07.581Z,28.23
2018-02-24T03:52:41.442Z,23.98
2018-02-24T03:53:15.366Z,24.33
2018-02-24T03:53:49.257Z,29.52
2018-02-24T03:54:23.257Z,26.60
2018-02-24T03:54:57.113Z,25.90
2018-02-24T03:55:30.972Z,22.30
2018-02-24T03:56:04.946Z,26.05
2018-02-24T03:56:38.840Z,27.42
2018-02-24T03:57:13.415Z,25.62
2018-02-24T03:57:47.279Z,26.17
2018-02-24T03:58:21.343Z,28.10
2018-02-24T03:58:55.358Z,25.95
2018-02-24T03:59:29.219Z,28.20
2018-02-24T04:00:03.238Z,23.40
2018-02-24T04:00:37.094Z,22.98
2018-02-24T04:01:10.962Z,23.48
2018-02-24T04:01:44.821Z,19.23
2018-02-24T04:02:19.050Z,25.62
2018-02-24T04:02:52.927Z,25.17
2018-02-24T04:03:26.792Z,23.45
2018-02-24T04:04:00.839Z,28.48
2018-02-24T04:04:34.718Z,22.58
2018-02-24T04:05:08.592Z,26.30
2018-02-24T04:05:42.444Z,26.73
2018-02-24T04:06:16.313Z,26.77
2018-02-24T04:06:50.181Z,23.10
2018-02-24T04:07:24.190Z,23.33
2018-02-24T04:07:58.055Z,20.48
2018-02-24T04:08:32.082Z,27.62
2018-02-24T04:09:05.970Z,26.12
2018-02-24T04:09:39.821Z,22.80
2018-02-24T04:10:13.680Z,23.73
2018-02-24T04:10:47.766Z,24.90
2018-02-24T04:11:21.693Z,25.10
2018-02-24T04:11:55.553Z,23.90
2018-02-24T04:12:29.425Z,25.05
2018-02-24T04:13:03.341Z,23.40
2018-02-24T04:13:37.225Z,21.58
2018-02-24T04:14:11.099Z,27.40
2018-02-24T04:14:45.025Z,22.98
2018-02-24T04:15:19.018Z,23.52
2018-02-24T04:15:52.881Z,23.50
2018-02-24T04:16:26.751Z,22.20
2018-02-24T04:17:00.621Z,21.50
2018-02-24T04:17:34.506Z,25.83
2018-02-24T04:18:08.397Z,30.80
2018-02-24T04:18:42.250Z,21.92
2018-02-24T04:19:16.141Z,23.15
2018-02-24T04:19:50.042Z,22.62
2018-02-24T04:20:23.901Z,22.90
2018-02-24T04:20:57.754Z,21.55
2018-02-24T04:21:31.773Z,22.25
2018-02-24T04:22:05.974Z,22.87
2018-02-24T04:22:39.841Z,23.85
2018-02-24T04:23:13.775Z,22.87
2018-02-24T04:23:47.649Z,26.02
2018-02-24T04:24:21.678Z,25.73
2018-02-24T04:24:58.669Z,27.83
2018-02-24T04:25:35.707Z,23.35
2018-02-24T04:26:12.300Z,23.38
2018-02-24T04:26:49.249Z,22.77
2018-02-24T04:27:25.876Z,22.45
2018-02-24T04:28:02.192Z,24.35
2018-02-24T04:28:36.047Z,21.75
2018-02-24T04:29:10.027Z,23.80
2018-02-24T04:29:47.518Z,26.00
2018-02-24T04:30:24.341Z,27.60
2018-02-24T04:31:01.152Z,23.27
2018-02-24T04:31:37.788Z,21.30
2018-02-24T04:32:16.286Z,24.60
2018-02-24T04:32:52.293Z,22.00
2018-02-24T04:33:26.229Z,24.65
2018-02-24T04:34:03.655Z,24.08
2018-02-24T04:34:40.843Z,23.30
2018-02-24T04:35:18.014Z,20.23
2018-02-24T04:35:54.921Z,20.37
2018-02-24T04:36:31.158Z,23.55
2018-02-24T04:37:08.159Z,22.08
2018-02-24T04:37:42.001Z,20.10
2018-02-24T04:38:16.034Z,23.73
2018-02-24T04:38:52.617Z,20.58
2018-02-24T04:39:29.359Z,19.55
2018-02-24T04:40:06.311Z,20.30
2018-02-24T04:40:43.258Z,21.95
2018-02-24T04:41:19.645Z,26.25
2018-02-24T04:41:56.910Z,24.85
2018-02-24T04:42:30.755Z,23.48
2018-02-24T04:43:04.806Z,20.08
2018-02-24T04:43:41.645Z,19.25
2018-02-24T04:44:18.325Z,27.85
2018-02-24T04:44:56.702Z,24.85
2018-02-24T04:45:32.944Z,22.60
2018-02-24T04:46:09.535Z,23.40
2018-02-24T04:46:46.033Z,21.77
2018-02-24T04:47:20.199Z,19.70
2018-02-24T04:47:54.208Z,22.77
2018-02-24T04:48:31.216Z,19.55
2018-02-24T04:49:08.196Z,24.00
2018-02-24T04:49:44.895Z,21.33
2018-02-24T04:50:21.760Z,24.33
2018-02-24T04:50:58.160Z,24.30
2018-02-24T04:51:34.874Z,21.83
2018-02-24T04:52:08.722Z,23.87
2018-02-24T04:52:45.047Z,26.42
2018-02-24T04:53:21.129Z,25.33
2018-02-24T04:53:57.638Z,25.35
2018-02-24T04:54:31.496Z,22.77
2018-02-24T04:55:05.460Z,20.35
2018-02-24T04:55:39.321Z,21.65
2018-02-24T04:56:13.182Z,21.37
2018-02-24T04:56:47.224Z,22.45
2018-02-24T04:57:21.086Z,21.55
2018-02-24T04:57:54.999Z,22.42
2018-02-24T04:58:29.097Z,22.37
2018-02-24T04:59:02.974Z,23.80
2018-02-24T04:59:36.838Z,20.55
2018-02-24T05:00:11.093Z,19.67
2018-02-24T05:00:44.983Z,20.17
2018-02-24T05:01:18.844Z,23.62
2018-02-24T05:01:55.265Z,19.50
2018-02-24T05:02:29.156Z,22.30
2018-02-24T05:03:03.012Z,23.05
2018-02-24T05:03:36.866Z,22.10
2018-02-24T05:04:11.024Z,20.40
2018-02-24T05:04:44.977Z,23.05
2018-02-24T05:05:18.909Z,22.60
2018-02-24T05:05:52.777Z,25.83
2018-02-24T05:06:26.807Z,17.20
2018-02-24T05:07:00.704Z,21.90
2018-02-24T05:07:34.593Z,19.70
2018-02-24T05:08:08.652Z,20.25
2018-02-24T05:08:42.691Z,27.37
2018-02-24T05:09:16.569Z,21.12
2018-02-24T05:09:50.592Z,20.08
2018-02-24T05:10:25.083Z,27.45
2018-02-24T05:10:58.953Z,25.33
2018-02-24T05:11:32.887Z,22.02
2018-02-24T05:12:06.901Z,20.95
2018-02-24T05:12:41.708Z,19.48
2018-02-24T05:13:15.561Z,19.98
2018-02-24T05:13:49.808Z,19.35
2018-02-24T05:14:23.682Z,19.12
2018-02-24T05:14:57.540Z,21.55
2018-02-24T05:15:31.401Z,19.62
2018-02-24T05:16:05.278Z,17.85
2018-02-24T05:16:39.277Z,23.52
2018-02-24T05:17:13.366Z,22.23
2018-02-24T05:17:47.224Z,21.75
2018-02-24T05:18:21.392Z,24.12
2018-02-24T05:18:55.262Z,24.80
2018-02-24T05:19:29.162Z,19.70
2018-02-24T05:20:03.009Z,22.73
2018-02-24T05:20:36.952Z,19.65
2018-02-24T05:21:10.829Z,19.62
2018-02-24T05:21:44.853Z,27.23
2018-02-24T05:22:18.753Z,19.65
2018-02-24T05:22:52.608Z,23.85
2018-02-24T05:23:26.533Z,20.85
2018-02-24T05:24:00.406Z,22.62
2018-02-24T05:24:34.417Z,19.73
2018-02-24T05:25:08.276Z,21.58
2018-02-24T05:25:42.216Z,22.52
2018-02-24T05:26:16.082Z,22.40
2018-02-24T05:26:49.951Z,21.73
2018-02-24T05:27:23.819Z,23.85
2018-02-24T05:27:57.681Z,24.75
2018-02-24T05:28:31.586Z,22.75
2018-02-24T05:29:05.597Z,27.17
2018-02-24T05:29:39.457Z,21.23
2018-02-24T05:30:13.475Z,22.58
2018-02-24T05:30:47.334Z,22.30
2018-02-24T05:31:21.235Z,21.62
2018-02-24T05:31:55.083Z,24.33
2018-02-24T05:32:29.258Z,23.95
2018-02-24T05:33:03.122Z,19.20
2018-02-24T05:33:37.018Z,24.05
2018-02-24T05:34:10.878Z,23.75
2018-02-24T05:34:44.740Z,25.08
2018-02-24T05:35:18.598Z,24.90
2018-02-24T05:35:52.560Z,22.37
2018-02-24T05:36:26.551Z,20.73
2018-02-24T05:37:00.430Z,22.00
2018-02-24T05:37:34.309Z,19.62
2018-02-24T05:38:08.176Z,25.35
2018-02-24T05:38:42.033Z,22.20
2018-02-24T05:39:15.894Z,23.52
2018-02-24T05:39:50.009Z,23.75
2018-02-24T05:40:23.990Z,23.27
2018-02-24T05:40:58.013Z,26.70
2018-02-24T05:41:31.878Z,25.85
2018-02-24T05:42:08.483Z,22.58
2018-02-24T05:42:42.366Z,24.58
2018-02-24T05:43:16.229Z,21.42
2018-02-24T05:43:50.459Z,27.98
2018-02-24T05:44:24.364Z,36.08
2018-02-24T05:44:58.220Z,27.40
2018-02-24T05:45:32.073Z,28.08
2018-02-24T05:46:06.124Z,25.08
2018-02-24T05:46:40.127Z,23.00
2018-02-24T05:47:14.133Z,40.08
2018-02-24T05:47:48.041Z,40.65
2018-02-24T05:48:22.244Z,39.45
2018-02-24T05:48:56.109Z,35.65
2018-02-24T05:49:29.969Z,40.22
2018-02-24T05:50:03.933Z,30.20
2018-02-24T05:50:37.782Z,32.33
2018-02-24T05:51:11.669Z,29.45
2018-02-24T05:51:45.530Z,26.00
2018-02-24T05:52:19.411Z,27.87
2018-02-24T05:52:53.386Z,26.23
2018-02-24T05:53:27.391Z,22.50
2018-02-24T05:54:01.318Z,25.10
2018-02-24T05:54:35.176Z,25.65
2018-02-24T05:55:09.038Z,25.25
2018-02-24T05:55:42.933Z,25.80
2018-02-24T05:56:17.172Z,19.77
2018-02-24T05:56:51.069Z,26.80
2018-02-24T05:57:24.935Z,22.55
2018-02-24T05:57:58.844Z,27.62
2018-02-24T05:58:32.701Z,21.70
2018-02-24T05:59:06.577Z,19.62
2018-02-24T05:59:40.437Z,27.62
2018-02-24T06:00:14.343Z,23.58
2018-02-24T06:00:48.225Z,18.98
2018-02-24T06:01:22.101Z,19.75
2018-02-24T06:01:55.977Z,26.37
2018-02-24T06:02:29.826Z,24.20
2018-02-24T06:03:03.719Z,21.23
2018-02-24T06:03:37.570Z,19.75
2018-02-24T06:04:11.473Z,22.33
2018-02-24T06:04:45.387Z,23.30
2018-02-24T06:05:19.240Z,23.23
2018-02-24T06:05:53.111Z,21.55
2018-02-24T06:06:27.009Z,19.10
2018-02-24T06:07:01.008Z,21.70
2018-02-24T06:07:34.888Z,21.37
2018-02-24T06:08:08.792Z,20.10
2018-02-24T06:08:42.660Z,22.33
2018-02-24T06:09:16.515Z,22.17
2018-02-24T06:09:50.553Z,19.83
2018-02-24T06:10:24.793Z,23.60
2018-02-24T06:10:58.755Z,19.85
2018-02-24T06:11:32.757Z,22.45
2018-02-24T06:12:06.762Z,27.45
2018-02-24T06:12:40.604Z,24.25
2018-02-24T06:13:17.999Z,22.30
2018-02-24T06:13:55.050Z,24.10
2018-02-24T06:14:31.788Z,21.50
2018-02-24T06:15:08.593Z,17.80
2018-02-24T06:15:45.609Z,21.20
2018-02-24T06:16:22.983Z,20.25
2018-02-24T06:16:57.175Z,26.05
2018-02-24T06:17:31.032Z,22.75
2018-02-24T06:18:07.431Z,30.27
2018-02-24T06:18:43.269Z,25.35
2018-02-24T06:19:19.859Z,23.40
2018-02-24T06:19:56.529Z,20.02
2018-02-24T06:20:31.752Z,22.42
2018-02-24T06:21:09.264Z,23.80
2018-02-24T06:21:43.114Z,23.05
2018-02-24T06:22:17.068Z,24.40
2018-02-24T06:22:54.472Z,25.65
2018-02-24T06:23:31.079Z,25.60
2018-02-24T06:24:07.866Z,22.52
2018-02-24T06:24:44.745Z,22.55
2018-02-24T06:25:21.486Z,20.05
2018-02-24T06:25:55.356Z,21.83
2018-02-24T06:26:29.207Z,22.20
2018-02-24T06:27:03.066Z,23.00
2018-02-24T06:27:37.048Z,20.75
2018-02-24T06:28:11.028Z,21.05
2018-02-24T06:28:44.891Z,21.92
2018-02-24T06:29:18.800Z,27.27
2018-02-24T06:29:52.707Z,21.37
2018-02-24T06:30:26.655Z,20.88
2018-02-24T06:31:00.520Z,29.05
2018-02-24T06:31:34.392Z,18.87
2018-02-24T06:32:08.258Z,18.50
2018-02-24T06:32:42.125Z,22.67
2018-02-24T06:33:15.994Z,21.52
2018-02-24T06:33:49.951Z,21.65
2018-02-24T06:34:23.842Z,20.05
2018-02-24T06:34:58.022Z,22.08
2018-02-24T06:35:31.893Z,21.25
2018-02-24T06:36:05.829Z,24.00
2018-02-24T06:36:39.697Z,19.90
2018-02-24T06:37:13.714Z,19.20
2018-02-24T06:37:47.698Z,20.62
2018-02-24T06:38:21.814Z,21.65
2018-02-24T06:38:55.670Z,22.77
2018-02-24T06:39:29.557Z,17.62
2018-02-24T06:40:03.586Z,20.20
2018-02-24T06:40:37.465Z,18.10
2018-02-24T06:41:11.348Z,21.70
2018-02-24T06:41:45.277Z,23.75
2018-02-24T06:42:19.142Z,24.75
2018-02-24T06:42:53.278Z,19.98
2018-02-24T06:43:27.132Z,15.77
2018-02-24T06:44:00.997Z,23.80
2018-02-24T06:44:34.930Z,18.52
2018-02-24T06:45:09.064Z,15.10
2018-02-24T06:45:42.938Z,18.42
2018-02-24T06:46:16.851Z,18.65
2018-02-24T06:46:50.709Z,22.73
2018-02-24T06:47:24.849Z,16.58
2018-02-24T06:47:58.851Z,15.70
2018-02-24T06:48:32.847Z,15.63
2018-02-24T06:49:06.944Z,17.90
2018-02-24T06:49:40.852Z,20.00
2018-02-24T06:50:14.712Z,15.88
2018-02-24T06:50:48.831Z,23.38
2018-02-24T06:51:22.833Z,24.35
2018-02-24T06:51:56.695Z,18.05
2018-02-24T06:52:30.624Z,20.73
2018-02-24T06:53:04.516Z,16.98
2018-02-24T06:53:38.378Z,22.48
2018-02-24T06:54:12.408Z,19.92
2018-02-24T06:54:46.277Z,13.62
2018-02-24T06:55:20.287Z,25.98
2018-02-24T06:55:54.311Z,18.55
2018-02-24T06:56:28.420Z,17.50
2018-02-24T06:57:02.571Z,18.85
2018-02-24T06:57:36.625Z,17.70
2018-02-24T06:58:10.499Z,20.30
2018-02-24T06:58:44.374Z,18.37
2018-02-24T06:59:18.233Z,20.83
2018-02-24T06:59:52.200Z,21.33
2018-02-24T07:00:26.063Z,20.08
2018-02-24T07:00:59.970Z,20.17
2018-02-24T07:01:33.833Z,16.87
2018-02-24T07:02:07.690Z,15.02
2018-02-24T07:02:41.694Z,19.02
2018-02-24T07:03:15.570Z,16.12
2018-02-24T07:03:49.417Z,15.45
2018-02-24T07:04:23.275Z,19.87
2018-02-24T07:04:57.191Z,22.90
2018-02-24T07:05:31.088Z,16.73
2018-02-24T07:06:04.956Z,16.48
2018-02-24T07:06:38.907Z,15.90
2018-02-24T07:07:12.769Z,20.17
2018-02-24T07:07:46.722Z,17.87
2018-02-24T07:08:20.649Z,21.65
2018-02-24T07:08:54.493Z,29.73
2018-02-24T07:09:28.488Z,21.98
2018-02-24T07:10:02.510Z,26.52
2018-02-24T07:10:36.886Z,19.00
2018-02-24T07:11:10.766Z,13.55
2018-02-24T07:11:44.611Z,16.77
2018-02-24T07:12:18.472Z,16.00
2018-02-24T07:12:52.392Z,15.55
2018-02-24T07:13:26.925Z,13.98
2018-02-24T07:14:00.979Z,14.27
2018-02-24T07:14:34.918Z,17.35
2018-02-24T07:15:08.873Z,15.32
2018-02-24T07:15:43.096Z,16.20
2018-02-24T07:16:17.255Z,13.00
2018-02-24T07:16:51.169Z,18.30
2018-02-24T07:17:25.199Z,16.70
2018-02-24T07:17:59.199Z,16.17
2018-02-24T07:18:33.135Z,13.98
2018-02-24T07:19:07.105Z,14.23
2018-02-24T07:19:41.146Z,11.93
2018-02-24T07:20:15.630Z,13.45
2018-02-24T07:20:49.625Z,14.98
2018-02-24T07:21:23.794Z,11.30
2018-02-24T07:21:57.749Z,15.55
2018-02-24T07:22:31.726Z,8.85
2018-02-24T07:23:05.722Z,13.02